createdAt,value
2023-03-22T00:01:36.918Z,1.70
2023-03-22T00:04:05.196Z,1.70
2023-03-22T00:06:35.396Z,1.60
2023-03-22T00:09:03.675Z,1.60
2023-03-22T00:11:31.848Z,1.60
2023-03-22T00:14:03.283Z,1.60
2023-03-22T00:16:31.534Z,1.60
2023-03-22T00:18:59.856Z,1.60
2023-03-22T00:21:28.346Z,1.60
2023-03-22T00:23:58.144Z,1.60
2023-03-22T00:26:26.239Z,1.60
2023-03-22T00:28:54.431Z,1.60
2023-03-22T00:31:22.672Z,1.60
2023-03-22T00:33:50.874Z,1.50
2023-03-22T00:36:19.171Z,1.60
2023-03-22T00:38:47.303Z,1.60
2023-03-22T00:41:18.037Z,1.50
2023-03-22T00:43:47.577Z,1.50
2023-03-22T00:46:16.463Z,1.50
2023-03-22T00:48:45.038Z,1.50
2023-03-22T00:51:13.585Z,1.50
2023-03-22T00:53:43.235Z,1.60
2023-03-22T00:56:14.309Z,1.60
2023-03-22T00:58:44.266Z,1.50
2023-03-22T01:01:14.290Z,1.50
2023-03-22T01:03:42.959Z,1.60
2023-03-22T01:06:11.733Z,1.50
2023-03-22T01:08:40.089Z,1.50
2023-03-22T01:11:09.551Z,1.50
2023-03-22T01:13:38.628Z,1.50
2023-03-22T01:16:09.118Z,1.50
2023-03-22T01:18:37.490Z,1.50
2023-03-22T01:21:09.263Z,1.40
2023-03-22T01:23:37.976Z,1.50
2023-03-22T01:26:06.667Z,1.50
2023-03-22T01:28:34.881Z,1.50
2023-03-22T01:31:04.250Z,1.50
2023-03-22T01:33:33.981Z,1.50
2023-03-22T01:36:02.187Z,1.50
2023-03-22T01:38:30.478Z,1.50
2023-03-22T01:40:58.838Z,1.50
2023-03-22T01:43:27.161Z,1.40
2023-03-22T01:45:58.695Z,1.40
2023-03-22T01:48:29.475Z,1.40
2023-03-22T01:51:04.315Z,1.40
2023-03-22T01:53:33.903Z,1.40
2023-03-22T01:56:03.499Z,1.40
2023-03-22T01:58:32.827Z,1.40
2023-03-22T02:01:01.332Z,1.50
2023-03-22T02:03:33.708Z,1.40
2023-03-22T02:06:03.456Z,1.40
2023-03-22T02:08:32.079Z,1.40
2023-03-22T02:11:00.812Z,1.50
2023-03-22T02:13:39.655Z,1.40
2023-03-22T02:16:13.978Z,1.50
2023-03-22T02:18:52.048Z,1.40
2023-03-22T02:21:50.402Z,1.40
2023-03-22T02:24:35.328Z,1.40
2023-03-22T02:27:21.155Z,1.40
2023-03-22T02:29:55.568Z,1.40
2023-03-22T02:32:38.979Z,1.40
2023-03-22T02:35:22.539Z,1.40
2023-03-22T02:38:09.670Z,1.40
2023-03-22T02:40:43.016Z,1.40
2023-03-22T02:43:16.802Z,1.40
2023-03-22T02:45:47.811Z,1.30
2023-03-22T02:48:19.014Z,1.30
2023-03-22T02:50:52.336Z,1.30
2023-03-22T02:53:21.960Z,1.30
2023-03-22T02:55:52.628Z,1.30
2023-03-22T02:58:22.657Z,1.40
2023-03-22T03:00:52.525Z,1.30
2023-03-22T03:03:25.640Z,1.30
2023-03-22T03:05:55.569Z,1.30
2023-03-22T03:08:25.056Z,1.30
2023-03-22T03:10:54.979Z,1.20
2023-03-22T03:13:23.188Z,1.20
2023-03-22T03:15:52.866Z,1.30
2023-03-22T03:18:27.855Z,1.20
2023-03-22T03:21:02.513Z,1.30
2023-03-22T03:23:34.943Z,1.20
2023-03-22T03:26:09.539Z,1.30
2023-03-22T03:28:41.531Z,1.30
2023-03-22T03:31:15.488Z,1.30
2023-03-22T03:33:47.525Z,1.30
2023-03-22T03:36:18.065Z,1.30
2023-03-22T03:38:48.600Z,1.30
2023-03-22T03:41:20.822Z,1.30
2023-03-22T03:43:49.620Z,1.30
2023-03-22T03:46:17.985Z,1.30
2023-03-22T03:48:48.120Z,1.30
2023-03-22T03:51:16.598Z,1.30
2023-03-22T03:53:44.922Z,1.30
2023-03-22T03:56:16.029Z,1.30
2023-03-22T03:58:45.775Z,1.30
2023-03-22T04:01:13.923Z,1.30
2023-03-22T04:03:42.143Z,1.30
2023-03-22T04:06:10.628Z,1.30
2023-03-22T04:08:38.776Z,1.30
2023-03-22T04:11:07.139Z,1.30
2023-03-22T04:13:35.369Z,1.30
2023-03-22T04:16:05.204Z,1.30
2023-03-22T04:18:33.420Z,1.30
2023-03-22T04:21:01.715Z,1.30
2023-03-22T04:23:30.014Z,1.40
2023-03-22T04:25:59.875Z,1.40
2023-03-22T04:28:28.286Z,1.40
2023-03-22T04:30:57.865Z,1.40
2023-03-22T04:33:27.437Z,1.40
2023-03-22T04:35:57.156Z,1.40
2023-03-22T04:38:26.461Z,1.40
2023-03-22T04:40:55.479Z,1.40
2023-03-22T04:43:23.849Z,1.40
2023-03-22T04:45:55.017Z,1.40
2023-03-22T04:48:28.334Z,1.40
2023-03-22T04:50:58.068Z,1.40
2023-03-22T04:53:27.549Z,1.50
2023-03-22T04:55:57.285Z,1.50
2023-03-22T04:58:25.580Z,1.50
2023-03-22T05:00:54.258Z,1.60
2023-03-22T05:03:22.681Z,1.50
2023-03-22T05:05:52.737Z,1.60
2023-03-22T05:08:22.843Z,1.60
2023-03-22T05:10:52.383Z,1.60
2023-03-22T05:13:20.879Z,1.60
2023-03-22T05:15:49.748Z,1.60
2023-03-22T05:18:18.166Z,1.70
2023-03-22T05:20:46.251Z,1.70
2023-03-22T05:23:14.548Z,1.70
2023-03-22T05:25:45.367Z,1.70
2023-03-22T05:28:15.818Z,1.70
2023-03-22T05:30:44.630Z,1.70
2023-03-22T05:33:13.195Z,1.70
2023-03-22T05:35:42.552Z,1.80
2023-03-22T05:38:11.294Z,1.80
2023-03-22T05:40:39.740Z,1.80
2023-03-22T05:43:09.597Z,1.80
2023-03-22T05:45:38.269Z,1.80
2023-03-22T05:48:06.529Z,1.80
2023-03-22T05:50:35.563Z,1.90
2023-03-22T05:53:04.412Z,1.80
2023-03-22T05:55:32.796Z,1.90
2023-03-22T05:58:02.056Z,1.90
2023-03-22T06:00:32.395Z,1.90
2023-03-22T06:03:03.836Z,1.90
2023-03-22T06:05:32.687Z,2.00
2023-03-22T06:08:01.089Z,2.00
2023-03-22T06:10:29.470Z,2.00
2023-03-22T06:12:57.747Z,2.10
2023-03-22T06:15:28.084Z,2.10
2023-03-22T06:17:57.834Z,2.10
2023-03-22T06:20:26.959Z,2.10
2023-03-22T06:22:55.285Z,2.20
2023-03-22T06:25:23.562Z,2.20
2023-03-22T06:27:51.734Z,2.20
2023-03-22T06:30:21.191Z,2.20
2023-03-22T06:32:49.300Z,2.20
2023-03-22T06:35:19.092Z,2.30
2023-03-22T06:37:47.382Z,2.30
2023-03-22T06:40:16.127Z,2.30
2023-03-22T06:42:44.383Z,2.30
2023-03-22T06:45:14.820Z,2.40
2023-03-22T06:47:43.243Z,2.40
2023-03-22T06:50:11.952Z,2.40
2023-03-22T06:52:41.698Z,2.40
2023-03-22T06:55:10.478Z,2.40
2023-03-22T06:57:38.670Z,2.50
2023-03-22T07:00:07.722Z,2.40
2023-03-22T07:02:36.484Z,2.50
2023-03-22T07:05:04.951Z,2.50
2023-03-22T07:07:33.054Z,2.50
2023-03-22T07:10:02.686Z,2.60
2023-03-22T07:12:31.126Z,2.60
2023-03-22T07:14:59.563Z,2.60
2023-03-22T07:17:27.759Z,2.60
2023-03-22T07:19:55.988Z,2.60
2023-03-22T07:22:24.993Z,2.70
2023-03-22T07:24:57.277Z,2.70
2023-03-22T07:27:28.470Z,2.70
2023-03-22T07:29:58.942Z,2.70
2023-03-22T07:32:27.123Z,2.70
2023-03-22T07:34:55.461Z,2.80
2023-03-22T07:37:23.590Z,2.80
2023-03-22T07:39:51.818Z,2.80
2023-03-22T07:42:20.018Z,2.80
2023-03-22T07:44:49.980Z,2.90
2023-03-22T07:47:27.108Z,2.90
2023-03-22T07:50:02.615Z,2.90
2023-03-22T07:52:31.096Z,3.00
2023-03-22T07:54:59.272Z,3.00
2023-03-22T07:57:27.848Z,3.00
2023-03-22T07:59:57.794Z,3.10
2023-03-22T08:02:26.396Z,3.10
2023-03-22T08:04:56.432Z,3.10
2023-03-22T08:07:25.378Z,3.10
2023-03-22T08:09:53.870Z,3.20
2023-03-22T08:12:22.226Z,3.30
2023-03-22T08:14:51.261Z,3.30
2023-03-22T08:17:21.082Z,3.40
2023-03-22T08:19:50.158Z,3.40
2023-03-22T08:22:18.512Z,3.50
2023-03-22T08:24:46.964Z,3.50
2023-03-22T08:27:15.045Z,3.50
2023-03-22T08:29:43.467Z,3.60
2023-03-22T08:32:11.698Z,3.70
2023-03-22T08:34:42.591Z,3.70
2023-03-22T08:37:11.153Z,3.70
2023-03-22T08:39:39.607Z,3.80
2023-03-22T08:42:07.837Z,3.80
2023-03-22T08:44:35.944Z,3.90
2023-03-22T08:47:04.175Z,4.00
2023-03-22T08:49:34.734Z,4.00
2023-03-22T08:52:07.426Z,4.00
2023-03-22T08:54:36.070Z,4.10
2023-03-22T08:57:04.616Z,4.20
2023-03-22T08:59:32.970Z,4.20
2023-03-22T09:02:01.181Z,4.30
2023-03-22T09:04:29.757Z,4.40
2023-03-22T09:06:57.970Z,4.50
2023-03-22T09:09:27.627Z,4.40
2023-03-22T09:11:56.398Z,4.50
2023-03-22T09:14:24.784Z,4.60
2023-03-22T09:16:52.987Z,4.60
2023-03-22T09:19:21.246Z,4.80
2023-03-22T09:21:50.128Z,4.70
2023-03-22T09:24:18.551Z,4.80
2023-03-22T09:26:48.081Z,4.90
2023-03-22T09:29:16.271Z,5.00
2023-03-22T09:31:45.122Z,5.10
2023-03-22T09:34:13.712Z,5.10
2023-03-22T09:36:49.657Z,5.20
2023-03-22T09:39:17.878Z,5.20
2023-03-22T09:41:49.016Z,5.30
2023-03-22T09:44:22.401Z,5.40
2023-03-22T09:46:51.409Z,5.50
2023-03-22T09:49:20.687Z,5.50
2023-03-22T09:51:50.022Z,5.50
2023-03-22T09:54:21.661Z,5.50
2023-03-22T09:56:54.687Z,5.50
2023-03-22T09:59:27.323Z,5.60
2023-03-22T10:02:01.050Z,5.60
2023-03-22T10:04:47.179Z,5.70
2023-03-22T10:07:21.695Z,5.80
2023-03-22T10:09:54.932Z,5.80
2023-03-22T10:12:27.771Z,5.90
2023-03-22T10:15:01.435Z,6.00
2023-03-22T10:17:30.971Z,6.10
2023-03-22T10:20:02.101Z,6.20
2023-03-22T10:22:35.035Z,6.20
2023-03-22T10:25:03.753Z,6.20
2023-03-22T10:27:34.306Z,6.20
2023-03-22T10:30:04.377Z,6.20
2023-03-22T10:32:42.748Z,6.20
2023-03-22T10:35:16.973Z,6.20
2023-03-22T10:37:46.517Z,6.30
2023-03-22T10:40:18.363Z,6.40
2023-03-22T10:42:53.137Z,6.40
2023-03-22T10:45:22.123Z,6.50
2023-03-22T10:47:57.457Z,6.50
2023-03-22T10:50:28.714Z,6.50
2023-03-22T10:53:00.033Z,6.50
2023-03-22T10:55:28.173Z,6.60
2023-03-22T10:58:00.512Z,6.50
2023-03-22T11:00:29.921Z,6.50
2023-03-22T11:02:59.928Z,6.60
2023-03-22T11:05:29.508Z,6.60
2023-03-22T11:07:58.423Z,6.60
2023-03-22T11:10:28.712Z,6.60
2023-03-22T11:12:58.538Z,6.60
2023-03-22T11:15:30.044Z,6.60
2023-03-22T11:18:03.053Z,6.60
2023-03-22T11:20:33.957Z,6.70
2023-03-22T11:23:04.046Z,6.80
2023-03-22T11:25:33.051Z,6.90
2023-03-22T11:28:09.691Z,7.10
2023-03-22T11:30:39.783Z,7.30
2023-03-22T11:33:18.028Z,7.30
2023-03-22T11:35:48.770Z,7.30
2023-03-22T11:38:29.598Z,7.20
2023-03-22T11:41:00.446Z,7.20
2023-03-22T11:43:29.670Z,7.10
2023-03-22T11:45:59.819Z,7.10
2023-03-22T11:48:29.328Z,7.10
2023-03-22T11:51:04.579Z,7.10
2023-03-22T11:53:34.390Z,7.10
2023-03-22T11:56:04.755Z,7.20
2023-03-22T11:58:45.381Z,7.10
2023-03-22T12:01:17.938Z,7.10
2023-03-22T12:03:50.247Z,7.10
2023-03-22T12:06:22.301Z,7.10
2023-03-22T12:08:54.871Z,7.20
2023-03-22T12:11:27.688Z,7.10
2023-03-22T12:13:57.628Z,7.20
2023-03-22T12:16:29.712Z,7.30
2023-03-22T12:19:06.718Z,7.20
2023-03-22T12:21:35.620Z,7.30
2023-03-22T12:24:04.585Z,7.40
2023-03-22T12:26:35.393Z,7.40
2023-03-22T12:29:06.519Z,7.40
2023-03-22T12:31:38.645Z,7.40
2023-03-22T12:34:09.400Z,7.40
2023-03-22T12:36:42.869Z,7.40
2023-03-22T12:39:15.365Z,7.30
2023-03-22T12:41:47.095Z,7.30
2023-03-22T12:44:27.583Z,7.30
2023-03-22T12:46:59.442Z,7.30
2023-03-22T12:49:37.384Z,7.30
2023-03-22T12:52:12.444Z,7.40
2023-03-22T12:54:41.570Z,7.30
2023-03-22T12:57:10.007Z,7.40
2023-03-22T12:59:38.406Z,7.40
2023-03-22T13:02:14.655Z,7.40
2023-03-22T13:04:52.622Z,7.50
2023-03-22T13:07:37.226Z,7.50
2023-03-22T13:10:21.391Z,7.60
2023-03-22T13:13:12.252Z,7.60
2023-03-22T13:15:42.601Z,7.70
2023-03-22T13:18:31.782Z,7.70
2023-03-22T13:21:13.249Z,7.80
2023-03-22T13:24:00.875Z,7.90
2023-03-22T13:26:33.346Z,7.90
2023-03-22T13:29:03.324Z,7.90
2023-03-22T13:31:36.730Z,8.00
2023-03-22T13:34:05.429Z,8.00
2023-03-22T13:36:37.541Z,8.10
2023-03-22T13:39:10.321Z,8.10
2023-03-22T13:41:39.666Z,8.20
2023-03-22T13:44:21.652Z,8.20
2023-03-22T13:46:54.190Z,8.20
2023-03-22T13:49:29.308Z,8.20
2023-03-22T13:52:00.611Z,8.30
2023-03-22T13:54:33.500Z,8.30
2023-03-22T13:57:01.947Z,8.30
2023-03-22T13:59:31.499Z,8.30
2023-03-22T14:02:00.836Z,8.30
2023-03-22T14:04:31.557Z,8.30
2023-03-22T14:07:07.120Z,8.30
2023-03-22T14:09:39.884Z,8.30
2023-03-22T14:12:10.008Z,8.30
2023-03-22T14:14:43.132Z,8.40
2023-03-22T14:17:17.772Z,8.50
2023-03-22T14:19:46.597Z,8.50
